General Aviation Weather

Text Reports

Enter one or more of the following location identifiers separated by a space:

Zip Code, Four-Character ICAO or Three-Character IATA airport codes.

METAR - Aviation Routine Weather Report
KDYL - Doylestown, Pennsylvania
Updated at 1:54 PM GMT on May 27, 2015 (9:54 AM EDT):
METAR KDYL 271354Z AUTO VRB05KT 10SM OVC015 23/20 A3017 RMK AO2 SLP213 T02280200
TAF - Terminal Area Forecast
KDYL - Doylestown, Pennsylvania
Updated at 1:54 PM GMT on May 27, 2015 (9:54 AM EDT):
No TAF is currently available for this location.
Decoded:
No decoded TAF is available.
PIREP - Pilot Weather Report
KDYL - Doylestown, Pennsylvania
Updated at 1:54 PM GMT on May 27, 2015 (9:54 AM EDT):
No PIREP is currently available for this location.
AIRMET - Airmens Meteorological Information
KDYL - Doylestown, Pennsylvania
Updated at 1:54 PM GMT on May 27, 2015 (9:54 AM EDT):
No AIRMET is currently available for this location.
SIGMET - Significant Meteorological Information
KDYL - Doylestown, Pennsylvania
Updated at 1:54 PM GMT on May 27, 2015 (9:54 AM EDT):
No SIGMET is currently available for this location.
NOTAM - Notice to Airmen
KDYL - Doylestown, Pennsylvania
Updated at 1:54 PM GMT on May 27, 2015 (9:54 AM EDT):
No NOTAM is currently available for this location.
Forecast Area
KDYL - Doylestown, Pennsylvania
Updated at 1:54 PM GMT on May 27, 2015 (9:54 AM EDT):
No NOTAM is currently available for this location.
Aviation Weather Maps